Time;durP1;ratioP1;P1;durP2;ratioP2;P2;SDS_P1;SDS_P2;PMS_P1;PMS_P2;Temp;Humidity;BMP_temperature;BMP_pressure;BME280_temperature;BME280_humidity;BME280_pressure;Samples;Min_cycle;Max_cycle;Signal;HPM_P1;HPM_P2
2023/12/08 00:00:53;;;;;;;10.80;8.80;;;;;;;-0.21;76.37;100776.89;105764;1257;66265;-74
2023/12/08 00:03:19;;;;;;;11.40;9.40;;;;;;;-0.21;76.33;100776.55;105877;1254;60620;-74
2023/12/08 00:05:46;;;;;;;11.80;9.20;;;;;;;-0.21;76.35;100777.38;105836;1253;63838;-73
2023/12/08 00:08:14;;;;;;;11.00;9.30;;;;;;;-0.22;76.36;100774.82;105801;1259;60508;-72
2023/12/08 00:10:40;;;;;;;11.50;9.00;;;;;;;-0.22;76.33;100774.31;105893;1254;61282;-74
2023/12/08 00:13:08;;;;;;;11.70;9.30;;;;;;;-0.22;76.34;100775.52;106066;1256;65062;-74
2023/12/08 00:15:35;;;;;;;11.80;9.40;;;;;;;-0.22;76.32;100773.27;105639;1254;60466;-72
2023/12/08 00:18:02;;;;;;;10.70;9.10;;;;;;;-0.23;76.38;100770.88;105822;1254;64045;-73
2023/12/08 00:20:29;;;;;;;11.90;9.20;;;;;;;-0.23;76.37;100771.23;105673;1254;61168;-74
2023/12/08 00:22:56;;;;;;;10.50;8.90;;;;;;;-0.24;76.34;100769.01;105862;1254;60543;-74
2023/12/08 00:25:23;;;;;;;11.00;8.80;;;;;;;-0.22;76.37;100769.65;105937;1254;65117;-73
2023/12/08 00:27:50;;;;;;;9.80;7.80;;;;;;;-0.21;76.40;100765.46;105871;1254;60642;-73
2023/12/08 00:30:17;;;;;;;9.40;8.00;;;;;;;-0.21;76.37;100769.10;105754;1259;62793;-73
2023/12/08 00:32:44;;;;;;;9.60;8.10;;;;;;;-0.22;76.39;100770.34;106093;1254;60716;-73
2023/12/08 00:35:11;;;;;;;8.40;7.30;;;;;;;-0.21;76.43;100768.05;106048;1254;60469;-70
2023/12/08 00:37:38;;;;;;;8.90;7.60;;;;;;;-0.19;76.47;100771.11;105900;1259;65207;-74
2023/12/08 00:40:07;;;;;;;9.10;7.70;;;;;;;-0.18;76.48;100767.80;106098;1254;60882;-75
2023/12/08 00:42:34;;;;;;;9.30;7.40;;;;;;;-0.18;76.42;100766.25;107545;1257;64036;-73
2023/12/08 00:45:01;;;;;;;8.30;6.80;;;;;;;-0.18;76.46;100767.13;105999;1256;59686;-74
2023/12/08 00:47:28;;;;;;;9.30;7.70;;;;;;;-0.19;76.44;100761.77;105956;1254;60459;-76
2023/12/08 00:49:57;;;;;;;8.60;7.50;;;;;;;-0.19;76.40;100765.23;105850;1255;64871;-75
2023/12/08 00:52:23;;;;;;;9.10;7.80;;;;;;;-0.17;76.45;100763.11;105843;1254;60476;-74
2023/12/08 00:54:50;;;;;;;9.30;7.60;;;;;;;-0.16;76.49;100764.97;105955;1254;65321;-74
2023/12/08 00:57:17;;;;;;;8.90;7.40;;;;;;;-0.14;76.53;100762.15;105914;1254;60512;-75
2023/12/08 00:59:43;;;;;;;10.00;8.10;;;;;;;-0.12;76.47;100761.89;105838;1255;60562;-75
2023/12/08 01:02:11;;;;;;;8.90;7.90;;;;;;;-0.13;76.41;100764.17;105715;1254;65957;-76
2023/12/08 01:04:38;;;;;;;9.30;8.00;;;;;;;-0.16;76.40;100761.36;105805;1254;60450;-76
2023/12/08 01:07:05;;;;;;;9.90;8.10;;;;;;;-0.19;76.44;100761.43;105856;1255;62591;-74
2023/12/08 01:09:31;;;;;;;9.90;7.80;;;;;;;-0.19;76.49;100763.67;106083;1256;60476;-75
2023/12/08 01:12:00;;;;;;;9.60;8.30;;;;;;;-0.18;76.43;100759.34;105893;1254;60370;-77
2023/12/08 01:14:27;;;;;;;10.00;8.00;;;;;;;-0.17;76.47;100756.02;105835;1259;63797;-75
2023/12/08 01:16:54;;;;;;;9.40;7.80;;;;;;;-0.17;76.39;100759.64;105978;1254;60546;-75
2023/12/08 01:19:21;;;;;;;9.30;8.10;;;;;;;-0.16;76.48;100760.30;105618;1260;64197;-77
2023/12/08 01:22:08;;;;;;;8.70;6.90;;;;;;;-0.17;76.44;100757.05;105839;1258;60335;-75
2023/12/08 01:24:35;;;;;;;9.20;7.90;;;;;;;-0.19;76.37;100752.08;105907;1259;60673;-75
2023/12/08 01:27:03;;;;;;;9.70;7.80;;;;;;;-0.21;76.36;100749.17;105910;1256;66716;-76
2023/12/08 01:29:30;;;;;;;10.60;8.20;;;;;;;-0.22;76.31;100749.89;106055;1258;60487;-73
2023/12/08 01:31:57;;;;;;;10.30;8.50;;;;;;;-0.22;76.27;100746.10;105956;1256;64161;-75
2023/12/08 01:34:41;;;;;;;10.20;8.60;;;;;;;-0.21;76.34;100745.19;102796;1294;601050;-75
2023/12/08 01:37:09;;;;;;;10.40;8.50;;;;;;;-0.22;76.22;100747.34;104850;1269;59748;-75
